sensor_id;sensor_type;location;lat;lon;timestamp;P1;durP1;ratioP1;P2;durP2;ratioP2
27794;SDS011;15176;50.844;4.412;2023-02-28T00:00:29;12.00;;;4.85;;
27794;SDS011;15176;50.844;4.412;2023-02-28T00:02:56;8.82;;;3.90;;
27794;SDS011;15176;50.844;4.412;2023-02-28T00:05:22;10.75;;;4.85;;
27794;SDS011;15176;50.844;4.412;2023-02-28T00:07:51;11.43;;;4.80;;
27794;SDS011;15176;50.844;4.412;2023-02-28T00:10:24;13.60;;;5.70;;
27794;SDS011;15176;50.844;4.412;2023-02-28T00:12:59;11.77;;;4.97;;
27794;SDS011;15176;50.844;4.412;2023-02-28T00:15:29;11.13;;;5.45;;
27794;SDS011;15176;50.844;4.412;2023-02-28T00:17:54;14.90;;;4.65;;
27794;SDS011;15176;50.844;4.412;2023-02-28T00:20:20;8.75;;;4.40;;
27794;SDS011;15176;50.844;4.412;2023-02-28T00:22:47;11.35;;;5.13;;
27794;SDS011;15176;50.844;4.412;2023-02-28T00:25:16;10.90;;;5.15;;
27794;SDS011;15176;50.844;4.412;2023-02-28T00:27:43;9.00;;;4.70;;
27794;SDS011;15176;50.844;4.412;2023-02-28T00:30:14;10.32;;;4.53;;
27794;SDS011;15176;50.844;4.412;2023-02-28T00:32:41;10.35;;;4.90;;
27794;SDS011;15176;50.844;4.412;2023-02-28T00:35:08;11.75;;;4.95;;
27794;SDS011;15176;50.844;4.412;2023-02-28T00:37:34;9.85;;;4.88;;
27794;SDS011;15176;50.844;4.412;2023-02-28T00:40:00;9.90;;;4.40;;
27794;SDS011;15176;50.844;4.412;2023-02-28T00:42:27;8.63;;;4.70;;
27794;SDS011;15176;50.844;4.412;2023-02-28T00:44:53;11.23;;;4.90;;
27794;SDS011;15176;50.844;4.412;2023-02-28T00:47:19;9.60;;;4.97;;
27794;SDS011;15176;50.844;4.412;2023-02-28T00:49:44;10.65;;;5.30;;
27794;SDS011;15176;50.844;4.412;2023-02-28T00:52:10;7.40;;;4.50;;
27794;SDS011;15176;50.844;4.412;2023-02-28T00:54:36;9.98;;;5.20;;
27794;SDS011;15176;50.844;4.412;2023-02-28T00:57:01;9.02;;;3.90;;
27794;SDS011;15176;50.844;4.412;2023-02-28T00:59:27;9.90;;;4.78;;
27794;SDS011;15176;50.844;4.412;2023-02-28T01:01:54;8.05;;;3.88;;
27794;SDS011;15176;50.844;4.412;2023-02-28T01:04:19;10.48;;;4.32;;
27794;SDS011;15176;50.844;4.412;2023-02-28T01:06:45;9.18;;;4.70;;
27794;SDS011;15176;50.844;4.412;2023-02-28T01:09:11;9.00;;;4.75;;
27794;SDS011;15176;50.844;4.412;2023-02-28T01:11:37;11.02;;;4.15;;
27794;SDS011;15176;50.844;4.412;2023-02-28T01:14:04;13.25;;;4.65;;
27794;SDS011;15176;50.844;4.412;2023-02-28T01:16:30;10.23;;;4.40;;
27794;SDS011;15176;50.844;4.412;2023-02-28T01:18:56;8.65;;;4.55;;
27794;SDS011;15176;50.844;4.412;2023-02-28T01:21:22;8.95;;;4.65;;
27794;SDS011;15176;50.844;4.412;2023-02-28T01:23:48;7.78;;;4.63;;
27794;SDS011;15176;50.844;4.412;2023-02-28T01:26:19;9.55;;;4.70;;
27794;SDS011;15176;50.844;4.412;2023-02-28T01:28:46;8.23;;;4.60;;
27794;SDS011;15176;50.844;4.412;2023-02-28T01:31:12;11.05;;;4.80;;
27794;SDS011;15176;50.844;4.412;2023-02-28T01:33:39;11.32;;;4.90;;
27794;SDS011;15176;50.844;4.412;2023-02-28T01:36:20;12.88;;;5.63;;
27794;SDS011;15176;50.844;4.412;2023-02-28T01:38:47;9.27;;;4.55;;
27794;SDS011;15176;50.844;4.412;2023-02-28T01:41:18;12.35;;;5.85;;
27794;SDS011;15176;50.844;4.412;2023-02-28T01:43:56;14.50;;;5.40;;
27794;SDS011;15176;50.844;4.412;2023-02-28T01:46:24;12.50;;;6.20;;
27794;SDS011;15176;50.844;4.412;2023-02-28T01:54:20;12.82;;;5.40;;
27794;SDS011;15176;50.844;4.412;2023-02-28T01:57:04;10.48;;;4.60;;
27794;SDS011;15176;50.844;4.412;2023-02-28T02:02:25;13.52;;;6.38;;
27794;SDS011;15176;50.844;4.412;2023-02-28T02:04:56;12.32;;;5.82;;
27794;SDS011;15176;50.844;4.412;2023-02-28T02:07:31;10.35;;;6.00;;
27794;SDS011;15176;50.844;4.412;2023-02-28T02:12:40;11.38;;;6.18;;
27794;SDS011;15176;50.844;4.412;2023-02-28T02:15:24;10.45;;;4.90;;
27794;SDS011;15176;50.844;4.412;2023-02-28T02:17:56;9.88;;;5.28;;
27794;SDS011;15176;50.844;4.412;2023-02-28T02:37:59;10.63;;;5.45;;
27794;SDS011;15176;50.844;4.412;2023-02-28T02:40:42;9.38;;;5.60;;
27794;SDS011;15176;50.844;4.412;2023-02-28T02:43:18;10.27;;;5.53;;
27794;SDS011;15176;50.844;4.412;2023-02-28T02:45:55;10.10;;;5.78;;
27794;SDS011;15176;50.844;4.412;2023-02-28T02:48:30;10.90;;;5.13;;
27794;SDS011;15176;50.844;4.412;2023-02-28T02:51:00;11.32;;;6.30;;
27794;SDS011;15176;50.844;4.412;2023-02-28T02:53:37;11.07;;;5.93;;
27794;SDS011;15176;50.844;4.412;2023-02-28T02:56:06;12.43;;;6.22;;
27794;SDS011;15176;50.844;4.412;2023-02-28T02:58:35;10.23;;;6.30;;
27794;SDS011;15176;50.844;4.412;2023-02-28T03:01:07;10.32;;;5.97;;
27794;SDS011;15176;50.844;4.412;2023-02-28T03:03:35;8.48;;;4.90;;
27794;SDS011;15176;50.844;4.412;2023-02-28T03:06:01;14.48;;;5.43;;
27794;SDS011;15176;50.844;4.412;2023-02-28T03:08:29;10.77;;;5.60;;
27794;SDS011;15176;50.844;4.412;2023-02-28T03:10:59;11.60;;;6.70;;
27794;SDS011;15176;50.844;4.412;2023-02-28T03:13:33;10.73;;;5.88;;
27794;SDS011;15176;50.844;4.412;2023-02-28T03:19:23;10.38;;;5.80;;
27794;SDS011;15176;50.844;4.412;2023-02-28T03:22:09;12.70;;;5.75;;
27794;SDS011;15176;50.844;4.412;2023-02-28T03:29:50;12.10;;;6.63;;
27794;SDS011;15176;50.844;4.412;2023-02-28T03:32:21;13.80;;;6.18;;
27794;SDS011;15176;50.844;4.412;2023-02-28T03:35:00;11.00;;;5.97;;
27794;SDS011;15176;50.844;4.412;2023-02-28T03:37:31;11.90;;;5.70;;
27794;SDS011;15176;50.844;4.412;2023-02-28T03:40:11;10.40;;;5.47;;
27794;SDS011;15176;50.844;4.412;2023-02-28T03:42:43;16.27;;;7.03;;
27794;SDS011;15176;50.844;4.412;2023-02-28T03:45:16;9.80;;;5.70;;
27794;SDS011;15176;50.844;4.412;2023-02-28T03:53:35;13.27;;;6.68;;
27794;SDS011;15176;50.844;4.412;2023-02-28T03:55:50;13.75;;;6.28;;
27794;SDS011;15176;50.844;4.412;2023-02-28T03:58:21;11.07;;;6.70;;
27794;SDS011;15176;50.844;4.412;2023-02-28T04:01:08;9.68;;;5.70;;
27794;SDS011;15176;50.844;4.412;2023-02-28T04:03:38;12.15;;;7.18;;
27794;SDS011;15176;50.844;4.412;2023-02-28T04:06:05;13.68;;;6.85;;
27794;SDS011;15176;50.844;4.412;2023-02-28T04:08:37;12.60;;;7.10;;
27794;SDS011;15176;50.844;4.412;2023-02-28T04:11:04;12.00;;;7.20;;
27794;SDS011;15176;50.844;4.412;2023-02-28T04:13:38;13.65;;;7.22;;
27794;SDS011;15176;50.844;4.412;2023-02-28T04:16:07;11.98;;;6.78;;
27794;SDS011;15176;50.844;4.412;2023-02-28T04:18:40;12.27;;;6.70;;
27794;SDS011;15176;50.844;4.412;2023-02-28T04:21:08;10.98;;;5.85;;
27794;SDS011;15176;50.844;4.412;2023-02-28T04:23:35;11.35;;;6.97;;
27794;SDS011;15176;50.844;4.412;2023-02-28T04:26:00;15.05;;;6.85;;
27794;SDS011;15176;50.844;4.412;2023-02-28T04:28:26;12.30;;;7.25;;
27794;SDS011;15176;50.844;4.412;2023-02-28T04:30:59;14.52;;;7.00;;
27794;SDS011;15176;50.844;4.412;2023-02-28T04:33:27;11.57;;;6.38;;
27794;SDS011;15176;50.844;4.412;2023-02-28T04:36:00;16.98;;;7.78;;
27794;SDS011;15176;50.844;4.412;2023-02-28T04:38:37;17.95;;;7.30;;
27794;SDS011;15176;50.844;4.412;2023-02-28T04:41:03;14.73;;;7.72;;
27794;SDS011;15176;50.844;4.412;2023-02-28T04:43:30;19.27;;;7.78;;
27794;SDS011;15176;50.844;4.412;2023-02-28T04:45:56;13.48;;;7.20;;
27794;SDS011;15176;50.844;4.412;2023-02-28T04:48:26;16.67;;;6.82;;
27794;SDS011;15176;50.844;4.412;2023-02-28T04:50:53;12.27;;;7.38;;
27794;SDS011;15176;50.844;4.412;2023-02-28T04:53:19;10.80;;;5.55;;
27794;SDS011;15176;50.844;4.412;2023-02-28T04:55:45;15.55;;;7.43;;
27794;SDS011;15176;50.844;4.412;2023-02-28T04:58:12;15.10;;;7.97;;
27794;SDS011;15176;50.844;4.412;2023-02-28T05:00:38;12.30;;;6.88;;
27794;SDS011;15176;50.844;4.412;2023-02-28T05:03:04;15.52;;;8.10;;
27794;SDS011;15176;50.844;4.412;2023-02-28T05:05:30;13.63;;;7.43;;
27794;SDS011;15176;50.844;4.412;2023-02-28T05:07:55;12.68;;;7.13;;
27794;SDS011;15176;50.844;4.412;2023-02-28T05:10:24;13.13;;;7.60;;
27794;SDS011;15176;50.844;4.412;2023-02-28T05:12:50;14.27;;;8.13;;
27794;SDS011;15176;50.844;4.412;2023-02-28T05:15:16;15.38;;;8.15;;
27794;SDS011;15176;50.844;4.412;2023-02-28T05:17:42;14.27;;;7.75;;
27794;SDS011;15176;50.844;4.412;2023-02-28T05:20:08;11.38;;;7.53;;
27794;SDS011;15176;50.844;4.412;2023-02-28T05:22:41;15.93;;;8.52;;
27794;SDS011;15176;50.844;4.412;2023-02-28T05:25:08;13.38;;;7.93;;
27794;SDS011;15176;50.844;4.412;2023-02-28T05:27:39;16.25;;;8.60;;
27794;SDS011;15176;50.844;4.412;2023-02-28T05:30:08;14.50;;;7.78;;
27794;SDS011;15176;50.844;4.412;2023-02-28T05:32:37;13.98;;;7.43;;
27794;SDS011;15176;50.844;4.412;2023-02-28T05:35:08;14.05;;;7.63;;
27794;SDS011;15176;50.844;4.412;2023-02-28T05:37:35;15.95;;;7.72;;
27794;SDS011;15176;50.844;4.412;2023-02-28T05:40:02;15.13;;;6.95;;
27794;SDS011;15176;50.844;4.412;2023-02-28T05:42:31;11.45;;;7.03;;
27794;SDS011;15176;50.844;4.412;2023-02-28T05:44:57;14.23;;;7.47;;
27794;SDS011;15176;50.844;4.412;2023-02-28T05:47:22;11.75;;;7.70;;
27794;SDS011;15176;50.844;4.412;2023-02-28T05:49:48;15.07;;;6.82;;
27794;SDS011;15176;50.844;4.412;2023-02-28T05:52:14;15.43;;;7.57;;
27794;SDS011;15176;50.844;4.412;2023-02-28T05:54:40;10.65;;;5.55;;
27794;SDS011;15176;50.844;4.412;2023-02-28T05:57:06;17.90;;;7.75;;
27794;SDS011;15176;50.844;4.412;2023-02-28T05:59:34;13.02;;;7.05;;
27794;SDS011;15176;50.844;4.412;2023-02-28T06:02:04;18.85;;;10.50;;
27794;SDS011;15176;50.844;4.412;2023-02-28T06:04:31;18.77;;;9.90;;
27794;SDS011;15176;50.844;4.412;2023-02-28T06:06:57;12.25;;;7.50;;
27794;SDS011;15176;50.844;4.412;2023-02-28T06:09:23;11.80;;;6.10;;
27794;SDS011;15176;50.844;4.412;2023-02-28T06:11:49;16.00;;;8.13;;
27794;SDS011;15176;50.844;4.412;2023-02-28T06:14:18;14.70;;;7.60;;
27794;SDS011;15176;50.844;4.412;2023-02-28T06:16:47;13.48;;;7.47;;
27794;SDS011;15176;50.844;4.412;2023-02-28T06:19:13;10.95;;;6.13;;
27794;SDS011;15176;50.844;4.412;2023-02-28T06:21:40;14.90;;;7.10;;
27794;SDS011;15176;50.844;4.412;2023-02-28T06:24:06;9.93;;;5.43;;
27794;SDS011;15176;50.844;4.412;2023-02-28T06:26:32;12.65;;;6.28;;
27794;SDS011;15176;50.844;4.412;2023-02-28T06:28:58;21.77;;;8.50;;
27794;SDS011;15176;50.844;4.412;2023-02-28T06:31:25;15.13;;;7.53;;
27794;SDS011;15176;50.844;4.412;2023-02-28T06:33:51;14.38;;;8.05;;
27794;SDS011;15176;50.844;4.412;2023-02-28T06:36:17;14.75;;;7.65;;
27794;SDS011;15176;50.844;4.412;2023-02-28T06:38:44;11.60;;;6.40;;
27794;SDS011;15176;50.844;4.412;2023-02-28T06:41:10;12.60;;;7.00;;
27794;SDS011;15176;50.844;4.412;2023-02-28T06:43:37;15.73;;;7.30;;
27794;SDS011;15176;50.844;4.412;2023-02-28T06:46:07;15.88;;;6.90;;
27794;SDS011;15176;50.844;4.412;2023-02-28T06:48:34;17.38;;;7.28;;
27794;SDS011;15176;50.844;4.412;2023-02-28T06:51:10;15.38;;;6.63;;
27794;SDS011;15176;50.844;4.412;2023-02-28T06:53:38;19.83;;;9.20;;
27794;SDS011;15176;50.844;4.412;2023-02-28T06:56:08;23.13;;;11.38;;
27794;SDS011;15176;50.844;4.412;2023-02-28T06:58:36;12.55;;;6.88;;
27794;SDS011;15176;50.844;4.412;2023-02-28T07:01:03;14.85;;;6.68;;
27794;SDS011;15176;50.844;4.412;2023-02-28T07:03:30;11.45;;;6.07;;
27794;SDS011;15176;50.844;4.412;2023-02-28T07:05:57;15.95;;;7.30;;
27794;SDS011;15176;50.844;4.412;2023-02-28T07:08:24;11.85;;;7.05;;
27794;SDS011;15176;50.844;4.412;2023-02-28T07:10:54;16.70;;;6.82;;
27794;SDS011;15176;50.844;4.412;2023-02-28T07:13:21;16.98;;;7.50;;
27794;SDS011;15176;50.844;4.412;2023-02-28T07:18:24;13.75;;;6.97;;
27794;SDS011;15176;50.844;4.412;2023-02-28T07:20:50;11.88;;;5.28;;
27794;SDS011;15176;50.844;4.412;2023-02-28T07:23:16;15.00;;;6.65;;
27794;SDS011;15176;50.844;4.412;2023-02-28T07:25:50;14.80;;;6.25;;
27794;SDS011;15176;50.844;4.412;2023-02-28T07:28:22;21.58;;;7.57;;
27794;SDS011;15176;50.844;4.412;2023-02-28T07:30:48;13.57;;;6.05;;
27794;SDS011;15176;50.844;4.412;2023-02-28T07:33:15;11.32;;;6.60;;
27794;SDS011;15176;50.844;4.412;2023-02-28T07:35:42;11.25;;;6.53;;
27794;SDS011;15176;50.844;4.412;2023-02-28T07:38:10;18.02;;;6.95;;
27794;SDS011;15176;50.844;4.412;2023-02-28T07:40:39;16.85;;;6.22;;
27794;SDS011;15176;50.844;4.412;2023-02-28T07:43:05;14.02;;;5.95;;
27794;SDS011;15176;50.844;4.412;2023-02-28T07:45:31;10.32;;;5.72;;
27794;SDS011;15176;50.844;4.412;2023-02-28T07:47:59;11.80;;;6.55;;
27794;SDS011;15176;50.844;4.412;2023-02-28T07:50:26;11.80;;;5.20;;
27794;SDS011;15176;50.844;4.412;2023-02-28T07:52:56;12.85;;;6.45;;
27794;SDS011;15176;50.844;4.412;2023-02-28T07:55:22;13.23;;;6.28;;
27794;SDS011;15176;50.844;4.412;2023-02-28T07:57:49;9.48;;;5.80;;
27794;SDS011;15176;50.844;4.412;2023-02-28T08:03:39;12.55;;;6.60;;
27794;SDS011;15176;50.844;4.412;2023-02-28T08:06:06;10.85;;;5.20;;
27794;SDS011;15176;50.844;4.412;2023-02-28T08:08:40;11.30;;;5.25;;
27794;SDS011;15176;50.844;4.412;2023-02-28T08:11:06;7.68;;;4.25;;
27794;SDS011;15176;50.844;4.412;2023-02-28T08:13:34;10.38;;;5.30;;
27794;SDS011;15176;50.844;4.412;2023-02-28T08:16:01;13.20;;;5.53;;
27794;SDS011;15176;50.844;4.412;2023-02-28T08:18:29;11.10;;;6.00;;
27794;SDS011;15176;50.844;4.412;2023-02-28T08:21:04;13.32;;;5.10;;
27794;SDS011;15176;50.844;4.412;2023-02-28T08:23:32;13.02;;;5.43;;
27794;SDS011;15176;50.844;4.412;2023-02-28T08:25:59;11.23;;;5.13;;
27794;SDS011;15176;50.844;4.412;2023-02-28T08:28:42;12.35;;;5.55;;
27794;SDS011;15176;50.844;4.412;2023-02-28T08:31:10;9.65;;;5.47;;
27794;SDS011;15176;50.844;4.412;2023-02-28T08:33:41;13.93;;;6.30;;
27794;SDS011;15176;50.844;4.412;2023-02-28T08:36:12;17.67;;;5.97;;
27794;SDS011;15176;50.844;4.412;2023-02-28T08:38:38;10.45;;;5.13;;
27794;SDS011;15176;50.844;4.412;2023-02-28T08:41:05;10.80;;;4.05;;
27794;SDS011;15176;50.844;4.412;2023-02-28T08:43:35;10.63;;;4.57;;
27794;SDS011;15176;50.844;4.412;2023-02-28T08:46:01;7.28;;;4.20;;
27794;SDS011;15176;50.844;4.412;2023-02-28T08:48:29;10.05;;;4.70;;
27794;SDS011;15176;50.844;4.412;2023-02-28T08:50:57;10.32;;;4.18;;
27794;SDS011;15176;50.844;4.412;2023-02-28T08:53:28;13.27;;;5.30;;
27794;SDS011;15176;50.844;4.412;2023-02-28T08:55:58;7.85;;;3.90;;
27794;SDS011;15176;50.844;4.412;2023-02-28T08:58:25;10.57;;;4.30;;
27794;SDS011;15176;50.844;4.412;2023-02-28T09:00:51;17.63;;;6.43;;
27794;SDS011;15176;50.844;4.412;2023-02-28T09:03:26;11.35;;;5.00;;
27794;SDS011;15176;50.844;4.412;2023-02-28T09:05:56;10.52;;;5.60;;
27794;SDS011;15176;50.844;4.412;2023-02-28T09:08:41;10.63;;;4.88;;
27794;SDS011;15176;50.844;4.412;2023-02-28T09:11:08;8.98;;;4.88;;
27794;SDS011;15176;50.844;4.412;2023-02-28T09:13:34;9.25;;;4.18;;
27794;SDS011;15176;50.844;4.412;2023-02-28T09:16:02;7.72;;;3.55;;
27794;SDS011;15176;50.844;4.412;2023-02-28T09:18:29;7.20;;;3.60;;
27794;SDS011;15176;50.844;4.412;2023-02-28T09:20:55;9.30;;;3.83;;
27794;SDS011;15176;50.844;4.412;2023-02-28T09:23:23;7.93;;;3.58;;
27794;SDS011;15176;50.844;4.412;2023-02-28T09:25:50;7.80;;;3.53;;
27794;SDS011;15176;50.844;4.412;2023-02-28T09:28:17;7.63;;;3.40;;
27794;SDS011;15176;50.844;4.412;2023-02-28T09:30:45;8.73;;;3.20;;
27794;SDS011;15176;50.844;4.412;2023-02-28T09:33:13;5.95;;;3.13;;
27794;SDS011;15176;50.844;4.412;2023-02-28T09:35:40;7.10;;;3.35;;
27794;SDS011;15176;50.844;4.412;2023-02-28T09:38:06;7.70;;;3.25;;
27794;SDS011;15176;50.844;4.412;2023-02-28T09:40:38;9.00;;;3.05;;
27794;SDS011;15176;50.844;4.412;2023-02-28T09:43:20;6.57;;;2.78;;
27794;SDS011;15176;50.844;4.412;2023-02-28T09:45:54;7.57;;;3.28;;
27794;SDS011;15176;50.844;4.412;2023-02-28T09:48:32;10.95;;;3.10;;
27794;SDS011;15176;50.844;4.412;2023-02-28T09:51:03;5.72;;;2.80;;
27794;SDS011;15176;50.844;4.412;2023-02-28T09:53:48;8.52;;;2.97;;
27794;SDS011;15176;50.844;4.412;2023-02-28T09:56:21;7.80;;;2.95;;
27794;SDS011;15176;50.844;4.412;2023-02-28T09:59:02;15.98;;;6.88;;
27794;SDS011;15176;50.844;4.412;2023-02-28T10:04:33;5.97;;;2.47;;
27794;SDS011;15176;50.844;4.412;2023-02-28T10:10:40;5.43;;;2.10;;
27794;SDS011;15176;50.844;4.412;2023-02-28T10:16:11;5.88;;;2.40;;
27794;SDS011;15176;50.844;4.412;2023-02-28T10:18:54;5.78;;;2.60;;
27794;SDS011;15176;50.844;4.412;2023-02-28T10:21:33;10.88;;;2.60;;
27794;SDS011;15176;50.844;4.412;2023-02-28T10:24:11;6.05;;;3.05;;
27794;SDS011;15176;50.844;4.412;2023-02-28T10:26:52;6.63;;;2.80;;
27794;SDS011;15176;50.844;4.412;2023-02-28T10:29:24;7.82;;;3.33;;
27794;SDS011;15176;50.844;4.412;2023-02-28T10:31:54;8.02;;;3.40;;
27794;SDS011;15176;50.844;4.412;2023-02-28T10:34:28;5.53;;;3.25;;
27794;SDS011;15176;50.844;4.412;2023-02-28T10:36:54;3.90;;;2.10;;
27794;SDS011;15176;50.844;4.412;2023-02-28T10:42:03;7.25;;;2.60;;
27794;SDS011;15176;50.844;4.412;2023-02-28T10:44:29;8.73;;;2.30;;
27794;SDS011;15176;50.844;4.412;2023-02-28T10:46:56;4.95;;;2.40;;
27794;SDS011;15176;50.844;4.412;2023-02-28T10:49:25;4.60;;;2.30;;
27794;SDS011;15176;50.844;4.412;2023-02-28T10:51:57;4.60;;;2.40;;
27794;SDS011;15176;50.844;4.412;2023-02-28T10:54:32;4.63;;;2.30;;
27794;SDS011;15176;50.844;4.412;2023-02-28T10:57:20;5.07;;;2.88;;
27794;SDS011;15176;50.844;4.412;2023-02-28T10:59:52;6.18;;;2.45;;
27794;SDS011;15176;50.844;4.412;2023-02-28T11:02:38;5.95;;;2.40;;
27794;SDS011;15176;50.844;4.412;2023-02-28T11:08:14;9.18;;;4.40;;
27794;SDS011;15176;50.844;4.412;2023-02-28T11:10:45;5.18;;;2.42;;
27794;SDS011;15176;50.844;4.412;2023-02-28T11:13:19;7.38;;;3.85;;
27794;SDS011;15176;50.844;4.412;2023-02-28T11:15:51;9.35;;;3.00;;
27794;SDS011;15176;50.844;4.412;2023-02-28T11:21:02;4.25;;;2.10;;
27794;SDS011;15176;50.844;4.412;2023-02-28T11:23:29;5.70;;;2.70;;
27794;SDS011;15176;50.844;4.412;2023-02-28T11:25:59;8.85;;;3.20;;
27794;SDS011;15176;50.844;4.412;2023-02-28T11:36:00;6.25;;;2.40;;
27794;SDS011;15176;50.844;4.412;2023-02-28T11:39:09;3.63;;;2.08;;
27794;SDS011;15176;50.844;4.412;2023-02-28T11:44:05;4.38;;;2.40;;
27794;SDS011;15176;50.844;4.412;2023-02-28T11:52:57;6.00;;;2.60;;
27794;SDS011;15176;50.844;4.412;2023-02-28T11:55:44;8.93;;;4.28;;
27794;SDS011;15176;50.844;4.412;2023-02-28T11:58:22;6.47;;;3.00;;
27794;SDS011;15176;50.844;4.412;2023-02-28T12:06:42;6.57;;;3.00;;
27794;SDS011;15176;50.844;4.412;2023-02-28T12:09:34;4.97;;;2.55;;
27794;SDS011;15176;50.844;4.412;2023-02-28T12:12:27;5.05;;;2.75;;
27794;SDS011;15176;50.844;4.412;2023-02-28T12:20:37;5.70;;;2.13;;
27794;SDS011;15176;50.844;4.412;2023-02-28T12:25:38;6.65;;;2.33;;
27794;SDS011;15176;50.844;4.412;2023-02-28T12:28:20;5.57;;;3.10;;
27794;SDS011;15176;50.844;4.412;2023-02-28T12:33:41;5.30;;;2.40;;
27794;SDS011;15176;50.844;4.412;2023-02-28T12:36:12;7.30;;;2.15;;
27794;SDS011;15176;50.844;4.412;2023-02-28T12:38:53;4.40;;;2.20;;
27794;SDS011;15176;50.844;4.412;2023-02-28T12:44:12;4.97;;;2.45;;
27794;SDS011;15176;50.844;4.412;2023-02-28T12:46:59;5.88;;;2.20;;
27794;SDS011;15176;50.844;4.412;2023-02-28T12:49:36;4.78;;;2.30;;
27794;SDS011;15176;50.844;4.412;2023-02-28T12:52:11;8.32;;;2.83;;
27794;SDS011;15176;50.844;4.412;2023-02-28T12:57:24;4.82;;;2.20;;
27794;SDS011;15176;50.844;4.412;2023-02-28T13:00:31;5.60;;;3.03;;
27794;SDS011;15176;50.844;4.412;2023-02-28T13:03:44;4.63;;;2.40;;
27794;SDS011;15176;50.844;4.412;2023-02-28T13:09:04;6.28;;;2.42;;
27794;SDS011;15176;50.844;4.412;2023-02-28T13:19:44;4.38;;;2.30;;
27794;SDS011;15176;50.844;4.412;2023-02-28T13:27:48;4.18;;;2.00;;
27794;SDS011;15176;50.844;4.412;2023-02-28T13:38:42;4.60;;;2.40;;
27794;SDS011;15176;50.844;4.412;2023-02-28T13:52:12;6.60;;;2.67;;
27794;SDS011;15176;50.844;4.412;2023-02-28T13:54:49;6.10;;;2.03;;
27794;SDS011;15176;50.844;4.412;2023-02-28T13:57:34;6.00;;;2.30;;
27794;SDS011;15176;50.844;4.412;2023-02-28T14:00:21;5.50;;;2.28;;
27794;SDS011;15176;50.844;4.412;2023-02-28T14:06:18;6.38;;;2.88;;
27794;SDS011;15176;50.844;4.412;2023-02-28T14:09:36;4.85;;;2.70;;
27794;SDS011;15176;50.844;4.412;2023-02-28T14:11:37;5.45;;;2.40;;
27794;SDS011;15176;50.844;4.412;2023-02-28T14:14:06;7.18;;;2.45;;
27794;SDS011;15176;50.844;4.412;2023-02-28T14:16:37;7.75;;;2.40;;
27794;SDS011;15176;50.844;4.412;2023-02-28T14:30:09;5.38;;;2.92;;
27794;SDS011;15176;50.844;4.412;2023-02-28T14:33:10;9.65;;;3.13;;
27794;SDS011;15176;50.844;4.412;2023-02-28T14:41:44;6.22;;;2.58;;
27794;SDS011;15176;50.844;4.412;2023-02-28T14:46:54;6.40;;;2.55;;
27794;SDS011;15176;50.844;4.412;2023-02-28T14:49:27;6.93;;;2.60;;
27794;SDS011;15176;50.844;4.412;2023-02-28T14:54:47;6.43;;;2.92;;
27794;SDS011;15176;50.844;4.412;2023-02-28T14:57:29;10.80;;;2.80;;
27794;SDS011;15176;50.844;4.412;2023-02-28T15:02:44;10.48;;;5.70;;
27794;SDS011;15176;50.844;4.412;2023-02-28T15:08:15;5.30;;;2.92;;
27794;SDS011;15176;50.844;4.412;2023-02-28T15:10:45;8.38;;;3.42;;
27794;SDS011;15176;50.844;4.412;2023-02-28T15:13:19;8.00;;;2.53;;
27794;SDS011;15176;50.844;4.412;2023-02-28T15:15:47;7.70;;;3.05;;
27794;SDS011;15176;50.844;4.412;2023-02-28T15:21:34;5.85;;;3.30;;
27794;SDS011;15176;50.844;4.412;2023-02-28T15:26:39;8.07;;;3.25;;
27794;SDS011;15176;50.844;4.412;2023-02-28T15:29:17;6.85;;;3.20;;
27794;SDS011;15176;50.844;4.412;2023-02-28T15:31:48;8.02;;;3.50;;
27794;SDS011;15176;50.844;4.412;2023-02-28T15:40:13;7.93;;;3.45;;
27794;SDS011;15176;50.844;4.412;2023-02-28T15:42:59;7.55;;;3.42;;
27794;SDS011;15176;50.844;4.412;2023-02-28T15:45:26;8.00;;;3.92;;
27794;SDS011;15176;50.844;4.412;2023-02-28T15:47:57;7.38;;;3.30;;
27794;SDS011;15176;50.844;4.412;2023-02-28T15:50:29;6.13;;;2.80;;
27794;SDS011;15176;50.844;4.412;2023-02-28T15:53:21;5.72;;;3.10;;
27794;SDS011;15176;50.844;4.412;2023-02-28T15:56:06;5.65;;;3.03;;
27794;SDS011;15176;50.844;4.412;2023-02-28T15:59:07;5.38;;;2.95;;
27794;SDS011;15176;50.844;4.412;2023-02-28T16:07:54;4.95;;;2.85;;
27794;SDS011;15176;50.844;4.412;2023-02-28T16:10:22;4.85;;;2.50;;
27794;SDS011;15176;50.844;4.412;2023-02-28T16:12:52;5.63;;;3.20;;
27794;SDS011;15176;50.844;4.412;2023-02-28T16:17:50;7.72;;;3.45;;
27794;SDS011;15176;50.844;4.412;2023-02-28T16:20:17;11.82;;;3.17;;
27794;SDS011;15176;50.844;4.412;2023-02-28T16:22:45;6.55;;;3.00;;
27794;SDS011;15176;50.844;4.412;2023-02-28T16:25:11;5.60;;;3.00;;
27794;SDS011;15176;50.844;4.412;2023-02-28T16:27:38;5.43;;;2.90;;
27794;SDS011;15176;50.844;4.412;2023-02-28T16:30:04;6.60;;;2.22;;
27794;SDS011;15176;50.844;4.412;2023-02-28T16:32:32;5.28;;;3.10;;
27794;SDS011;15176;50.844;4.412;2023-02-28T16:35:01;7.05;;;3.30;;
27794;SDS011;15176;50.844;4.412;2023-02-28T16:37:27;7.20;;;3.30;;
27794;SDS011;15176;50.844;4.412;2023-02-28T16:39:53;5.85;;;3.67;;
27794;SDS011;15176;50.844;4.412;2023-02-28T16:42:28;6.15;;;3.20;;
27794;SDS011;15176;50.844;4.412;2023-02-28T16:44:55;6.88;;;3.10;;
27794;SDS011;15176;50.844;4.412;2023-02-28T16:47:23;5.38;;;2.67;;
27794;SDS011;15176;50.844;4.412;2023-02-28T16:49:51;6.35;;;3.47;;
27794;SDS011;15176;50.844;4.412;2023-02-28T16:52:17;4.93;;;2.95;;
27794;SDS011;15176;50.844;4.412;2023-02-28T16:54:43;5.85;;;3.00;;
27794;SDS011;15176;50.844;4.412;2023-02-28T16:57:17;5.85;;;3.35;;
27794;SDS011;15176;50.844;4.412;2023-02-28T16:59:47;9.15;;;4.00;;
27794;SDS011;15176;50.844;4.412;2023-02-28T17:02:14;4.85;;;2.88;;
27794;SDS011;15176;50.844;4.412;2023-02-28T17:04:41;10.50;;;3.50;;
27794;SDS011;15176;50.844;4.412;2023-02-28T17:07:11;5.68;;;3.00;;
27794;SDS011;15176;50.844;4.412;2023-02-28T17:09:38;13.23;;;3.30;;
27794;SDS011;15176;50.844;4.412;2023-02-28T17:12:05;8.38;;;3.42;;
27794;SDS011;15176;50.844;4.412;2023-02-28T17:14:32;8.80;;;3.00;;
27794;SDS011;15176;50.844;4.412;2023-02-28T17:16:57;7.90;;;3.15;;
27794;SDS011;15176;50.844;4.412;2023-02-28T17:19:23;11.70;;;3.63;;
27794;SDS011;15176;50.844;4.412;2023-02-28T17:21:49;6.78;;;2.65;;
27794;SDS011;15176;50.844;4.412;2023-02-28T17:24:15;10.35;;;3.00;;
27794;SDS011;15176;50.844;4.412;2023-02-28T17:26:41;7.20;;;2.85;;
27794;SDS011;15176;50.844;4.412;2023-02-28T17:29:20;7.53;;;3.63;;
27794;SDS011;15176;50.844;4.412;2023-02-28T17:31:46;7.00;;;3.35;;
27794;SDS011;15176;50.844;4.412;2023-02-28T17:34:12;8.13;;;3.42;;
27794;SDS011;15176;50.844;4.412;2023-02-28T17:36:43;7.47;;;3.83;;
27794;SDS011;15176;50.844;4.412;2023-02-28T17:39:11;7.50;;;3.95;;
27794;SDS011;15176;50.844;4.412;2023-02-28T17:41:39;6.38;;;3.80;;
27794;SDS011;15176;50.844;4.412;2023-02-28T17:44:06;7.43;;;4.05;;
27794;SDS011;15176;50.844;4.412;2023-02-28T17:46:35;10.10;;;3.30;;
27794;SDS011;15176;50.844;4.412;2023-02-28T17:49:01;9.45;;;4.38;;
27794;SDS011;15176;50.844;4.412;2023-02-28T17:51:27;8.90;;;3.90;;
27794;SDS011;15176;50.844;4.412;2023-02-28T17:53:53;9.15;;;4.30;;
27794;SDS011;15176;50.844;4.412;2023-02-28T17:56:21;12.70;;;5.57;;
27794;SDS011;15176;50.844;4.412;2023-02-28T17:58:48;9.70;;;4.03;;
27794;SDS011;15176;50.844;4.412;2023-02-28T18:01:16;8.85;;;4.22;;
27794;SDS011;15176;50.844;4.412;2023-02-28T18:03:42;8.50;;;4.85;;
27794;SDS011;15176;50.844;4.412;2023-02-28T18:06:11;11.15;;;4.70;;
27794;SDS011;15176;50.844;4.412;2023-02-28T18:08:49;10.73;;;4.80;;
27794;SDS011;15176;50.844;4.412;2023-02-28T18:11:17;10.40;;;4.82;;
27794;SDS011;15176;50.844;4.412;2023-02-28T18:14:03;8.50;;;4.70;;